Guilford, Vermont
Current Conditions -  °F | °C
As of 9:55 AM on Thursday 30 Oct 2014 (Local Time) from KEEN Reporting Station
Overcast Overcast  
Wind Chill: 39°   Ceiling: 7000
Heat Index: 39°   Visibility: 10mi
Dew Point: 32°   Wind: 0mph
Humidity: 75%   Direction: NA
Pressure: 29.96"   Gusts: NA
Location:  42.8513°N, 72.6568°W
Report Text: KEEN 301355Z AUTO 00000KT 10SM OVC070 04/00 A2996 RMK AO1
Loading
Personal Weather Stations






























Interactive Weather Map
Tropical Storm Tracking
New forecast layout! Learn more

10-Day Weather Forecast

Advertisements
Track Severe Weather on mobile